KPZQ METAR Reports


Rogers City, Presque Isle County Airport, MI, United States (KPZQ) 45-24-25N 083-48-46W
Apr 12, 2021 - 02:55 PM EDT / 2021.04.12 1855 UTC
Wind: from the E (100 degrees) at 13 MPH (11 KT) gusting to 17 MPH (15 KT):0
Visibility: 3 mile(s):0
Sky conditions: overcast
Weather: mist
Temperature: 44.6 F (7.0 C)
Dew Point: 43.9 F (6.6 C)
Relative Humidity: 97%
Pressure (altimeter): 29.74 in. Hg (1007 hPa)
ob: KPZQ 121855Z AUTO 10011G15KT 3SM BR OVC008 07/07 A2974 RMK AO2 T00700066
cycle: 19

 

Rogers City METAR Meteogram

Weather Chart

Nearby METAR Reports

KPZQ - Rogers City, Michigan, USA
Distance from station: SSW 1mi, 2km
Updated: Mon, 12-Apr-2021 2:55pm EDT
Mist, Overcast
Mist, Overcast
 Wind from E
Wind: E 13 mph , 20 km/h, Gust: 17 mph , 28 km/h
Temperature: 45°F , 7°C
Wind Chill: 39°F , 4°C
Dew Point: 45°F , 7°C
Humidity: 100%
Barometer: 29.74 inHg , 1007.1 hPa
Summary: Mist
Clouds: Overcast
Visibility: 3 miles , 5 km
Cloud details: Overcast 800 ft
2021/04/12 18:55 KPZQ 121855Z AUTO 10011G15KT 3SM BR OVC008 07/07 A2974 RMK AO2 T00700066
KAPN - Alpena, Michigan, USA
Distance from station: SSE 27mi, 43km
Updated: Mon, 12-Apr-2021 2:54pm EDT
Mist, Overcast
Mist, Overcast
 Wind from E
Wind: E 10 mph , 17 km/h
Temperature: 46°F , 8°C
Wind Chill: 41°F , 5°C
Dew Point: 46°F , 8°C
Humidity: 100%
Barometer: 29.72 inHg , 1006.4 hPa
Summary: Mist
Clouds: Overcast
Visibility: 1 mile , 2 km
Cloud details: Overcast 500 ft
2021/04/12 18:54 KAPN 121854Z 09009KT 1SM BR OVC005 08/08 A2972 RMK AO2 SLP067 T00830078
 
KSLH - Cheboygan, Michigan, USA
Distance from station: WNW 38mi, 61km
Updated: Mon, 12-Apr-2021 2:55pm EDT
Overcast
Overcast
 Wind from E
Wind: E 15 mph , 24 km/h, Gust: 23 mph , 37 km/h
Temperature: 50°F , 10°C
Wind Chill: 45°F , 7°C
Dew Point: 50°F , 10°C
Humidity: 100%
Barometer: 29.70 inHg , 1005.8 hPa
Clouds: Overcast
Visibility: 10 miles , 16 km
Cloud details: Overcast 1600 ft
2021/04/12 18:55 KSLH 121855Z AUTO 10013G20KT 10SM OVC016 10/10 A2970 RMK AO2
KDRM - Drummond Is, Michigan, USA
Distance from station: N 40mi, 65km
Updated: Mon, 12-Apr-2021 2:55pm EDT
Overcast
Overcast
 Wind from E
Wind: E 6 mph , 9 km/h
Temperature: 52°F , 11°C
Dew Point: 45°F , 7°C
Humidity: 77%
Barometer: 29.73 inHg , 1006.8 hPa
Clouds: Overcast
Visibility: 10 miles , 16 km
Cloud details: Overcast 2100 ft
2021/04/12 18:55 KDRM 121855Z AUTO 08005KT 10SM OVC021 11/07 A2973 RMK AO2 T01120066
 
KPLN - Pellston, Michigan, USA
Distance from station: WNW 49mi, 79km
Updated: Mon, 12-Apr-2021 2:54pm EDT
Overcast
Overcast
 Wind from E
Wind: E 9 mph , 15 km/h
Temperature: 54°F , 12°C
Dew Point: 46°F , 8°C
Humidity: 77%
Barometer: 29.70 inHg , 1005.8 hPa
Clouds: Overcast
Visibility: 10 miles , 16 km
Cloud details: Overcast 1400 ft
2021/04/12 18:54 KPLN 121854Z AUTO 10008KT 10SM OVC014 12/08 A2970 RMK AO2 SLP061 T01170083
KMCD - Mackinac Island, Michigan, USA
Distance from station: NW 50mi, 80km
Updated: Mon, 12-Apr-2021 2:55pm EDT
Overcast
Overcast
 Wind from E
Wind: E 10 mph , 17 km/h, Gust: 20 mph , 31 km/h
Temperature: 48°F , 9°C
Wind Chill: 44°F , 7°C
Dew Point: 48°F , 9°C
Humidity: 100%
Barometer: 29.71 inHg , 1006.1 hPa
Clouds: Overcast
Visibility: 10 miles , 16 km
Cloud details: Overcast 100 ft
2021/04/12 18:55 KMCD 121855Z AUTO 10009G17KT 10SM OVC001 09/09 A2971 RMK AO2 T00870087